Time;durP1;ratioP1;P1;durP2;ratioP2;P2;SDS_P1;SDS_P2;PMS_P1;PMS_P2;Temp;Humidity;BMP_temperature;BMP_pressure;BME280_temperature;BME280_humidity;BME280_pressure;Samples;Min_cycle;Max_cycle;Signal;HPM_P1;HPM_P2
2023/05/18 00:01:30;;;;;;;10.07;5.23;;;;;;;6.97;93.67;98337.69;6120278;29;20713;-44
2023/05/18 00:04:34;;;;;;;7.73;5.07;;;;;;;6.95;93.78;98328.31;6120294;29;20240;-43
2023/05/18 00:07:38;;;;;;;9.57;5.40;;;;;;;7.00;94.08;98330.34;6115772;29;20722;-45
2023/05/18 00:10:40;;;;;;;8.40;4.87;;;;;;;6.95;93.67;98323.03;6125919;29;20237;-45
2023/05/18 00:13:43;;;;;;;11.10;4.90;;;;;;;6.96;93.52;98327.28;6119989;29;20235;-48
2023/05/18 00:16:46;;;;;;;7.33;4.70;;;;;;;7.04;92.02;98320.97;6122761;29;20234;-47
2023/05/18 00:19:49;;;;;;;7.67;4.53;;;;;;;7.03;92.58;98311.38;6131621;28;20238;-49
2023/05/18 00:22:52;;;;;;;8.53;4.97;;;;;;;7.08;91.20;98315.06;6148089;28;20237;-46
2023/05/18 00:26:00;;;;;;;12.23;4.80;;;;;;;7.08;91.54;98323.00;6142886;28;20226;-45
2023/05/18 00:29:02;;;;;;;13.63;5.10;;;;;;;7.07;91.05;98309.97;6148677;28;20237;-45
2023/05/18 00:32:05;;;;;;;9.47;4.90;;;;;;;7.12;90.85;98318.13;6146405;28;20242;-48
2023/05/18 00:35:08;;;;;;;8.27;4.40;;;;;;;7.04;91.41;98303.22;6147787;28;20700;-44
2023/05/18 00:38:11;;;;;;;7.60;4.90;;;;;;;7.07;92.00;98312.63;6150117;28;20697;-49
2023/05/18 00:41:13;;;;;;;10.80;4.83;;;;;;;7.04;92.05;98324.41;6145462;28;20296;-43
2023/05/18 00:44:15;;;;;;;7.60;4.90;;;;;;;7.05;93.06;98327.91;6145993;28;20775;-45
2023/05/18 00:47:19;;;;;;;10.03;5.23;;;;;;;7.01;92.87;98324.84;6147424;28;20991;-46
2023/05/18 00:50:21;;;;;;;9.67;4.70;;;;;;;7.01;93.10;98329.34;6148782;28;20292;-48
2023/05/18 00:53:25;;;;;;;11.63;5.53;;;;;;;7.01;93.06;98326.69;6144940;28;20248;-44
2023/05/18 00:56:27;;;;;;;8.03;4.67;;;;;;;7.01;93.04;98322.19;6148441;28;20233;-48
2023/05/18 00:59:31;;;;;;;6.73;4.97;;;;;;;6.98;93.58;98323.41;6145454;28;20936;-46
2023/05/18 01:02:35;;;;;;;9.87;5.07;;;;;;;7.00;93.31;98317.94;6147280;28;20755;-44
2023/05/18 01:05:38;;;;;;;6.77;4.53;;;;;;;7.04;92.49;98321.78;6148229;28;20292;-47
2023/05/18 01:08:41;;;;;;;6.20;4.63;;;;;;;7.04;91.50;98313.00;6146695;28;20238;-47
2023/05/18 01:12:05;;;;;;;8.93;4.80;;;;;;;7.05;91.14;98323.44;6146730;28;20598;-47
2023/05/18 01:15:22;;;;;;;7.00;4.50;;;;;;;7.07;91.64;98328.50;6146511;28;20731;-45
2023/05/18 01:18:45;;;;;;;10.60;4.40;;;;;;;7.06;90.85;98330.34;6145874;28;20273;-45
2023/05/18 01:22:12;;;;;;;10.93;4.57;;;;;;;7.12;90.75;98339.31;6154537;28;20321;-48
2023/05/18 01:25:52;;;;;;;11.60;4.50;;;;;;;7.11;89.11;98333.22;6146872;28;20275;-48
2023/05/18 01:28:57;;;;;;;8.03;4.10;;;;;;;7.21;88.97;98330.97;6136659;28;20245;-46
2023/05/18 01:31:59;;;;;;;7.40;4.80;;;;;;;7.18;88.64;98317.28;6142985;28;20237;-48
2023/05/18 01:35:03;;;;;;;9.47;4.33;;;;;;;7.17;89.12;98328.94;6151914;28;20241;-45
2023/05/18 01:38:05;;;;;;;5.90;4.33;;;;;;;7.16;89.81;98340.56;6144756;28;20237;-47
2023/05/18 01:41:21;;;;;;;7.00;3.67;;;;;;;7.12;89.78;98329.53;6127533;28;20235;-51
2023/05/18 01:44:52;;;;;;;10.37;4.43;;;;;;;7.13;90.60;98335.63;6144019;28;20267;-48
2023/05/18 01:47:58;;;;;;;6.73;4.27;;;;;;;7.13;88.82;98335.63;6147116;28;20373;-47
2023/05/18 01:51:01;;;;;;;9.00;4.40;;;;;;;7.15;88.62;98323.03;6127738;28;20293;-45
2023/05/18 01:54:06;;;;;;;8.20;4.63;;;;;;;7.15;88.87;98341.56;6146073;28;20454;-49
2023/05/18 01:57:11;;;;;;;5.70;3.87;;;;;;;7.15;89.33;98341.56;6145940;28;20468;-45
2023/05/18 02:00:16;;;;;;;7.13;4.83;;;;;;;7.13;89.48;98320.56;6141900;28;20237;-49
2023/05/18 02:03:20;;;;;;;9.60;4.30;;;;;;;6.93;89.91;98309.97;6144840;28;20293;-47
2023/05/18 02:06:23;;;;;;;7.80;4.50;;;;;;;7.07;89.85;98328.50;6144130;28;20245;-47
2023/05/18 02:09:25;;;;;;;7.37;4.37;;;;;;;7.08;89.44;98328.31;6141914;28;20230;-50
2023/05/18 02:12:28;;;;;;;7.07;4.70;;;;;;;7.09;89.86;98337.06;6145480;28;20307;-49
2023/05/18 02:15:30;;;;;;;9.17;4.50;;;;;;;7.12;89.44;98326.88;6142811;28;20234;-44
2023/05/18 02:18:34;;;;;;;7.33;3.83;;;;;;;7.09;89.35;98331.75;6144530;28;20226;-50
2023/05/18 02:21:37;;;;;;;8.53;4.20;;;;;;;7.06;89.10;98335.66;6145491;28;20245;-51
2023/05/18 02:24:39;;;;;;;7.43;4.07;;;;;;;7.09;89.25;98340.53;6143000;28;20296;-50
2023/05/18 02:27:42;;;;;;;6.23;3.87;;;;;;;7.06;88.45;98329.53;6144449;28;20240;-48
2023/05/18 02:30:44;;;;;;;8.33;4.23;;;;;;;7.07;88.27;98333.81;6144564;28;20252;-49
2023/05/18 02:33:46;;;;;;;7.73;4.10;;;;;;;7.13;86.52;98331.16;6146625;28;20229;-50
2023/05/18 02:36:49;;;;;;;11.17;4.63;;;;;;;7.19;86.66;98324.22;6148358;28;20318;-49
2023/05/18 02:39:51;;;;;;;7.97;4.23;;;;;;;7.23;85.97;98320.97;6143023;28;20279;-50
2023/05/18 02:42:54;;;;;;;9.67;4.30;;;;;;;7.20;85.15;98320.59;6128932;28;20711;-50
2023/05/18 02:45:57;;;;;;;6.10;3.90;;;;;;;7.15;86.39;98323.84;6140729;28;20733;-48
2023/05/18 02:48:59;;;;;;;9.67;4.20;;;;;;;7.12;87.01;98326.06;6127003;28;20244;-46
2023/05/18 02:52:02;;;;;;;9.70;4.37;;;;;;;7.10;88.65;98325.47;6126777;28;20328;-44
2023/05/18 02:55:05;;;;;;;8.90;4.57;;;;;;;7.04;88.19;98332.38;6143389;28;20341;-45
2023/05/18 02:58:25;;;;;;;11.53;4.50;;;;;;;7.01;88.33;98338.09;6143550;28;20731;-46
2023/05/18 03:01:51;;;;;;;11.20;4.60;;;;;;;7.18;85.18;98330.53;6145334;28;20248;-46
2023/05/18 03:04:56;;;;;;;7.70;4.03;;;;;;;7.12;85.83;98328.72;6142815;28;20252;-45
2023/05/18 03:08:01;;;;;;;8.30;4.00;;;;;;;7.13;87.25;98330.34;6130226;28;20248;-45
2023/05/18 03:11:05;;;;;;;8.40;3.80;;;;;;;7.08;87.01;98323.00;6143824;28;20244;-45
2023/05/18 03:14:07;;;;;;;10.67;3.73;;;;;;;7.08;86.43;98330.94;6153795;28;20240;-47
2023/05/18 03:17:10;;;;;;;11.67;4.30;;;;;;;7.12;85.58;98329.53;6143804;28;20320;-45
2023/05/18 03:20:14;;;;;;;8.73;4.13;;;;;;;7.07;86.11;98326.69;6144285;28;20328;-44
2023/05/18 03:23:18;;;;;;;8.73;4.40;;;;;;;7.09;85.82;98340.53;6137424;28;20234;-44
2023/05/18 03:26:25;;;;;;;8.97;4.03;;;;;;;7.09;85.30;98335.22;6126775;28;20245;-45
2023/05/18 03:29:27;;;;;;;12.40;4.80;;;;;;;7.07;86.79;98331.97;6142625;28;20248;-44
2023/05/18 03:32:35;;;;;;;7.60;4.10;;;;;;;7.04;86.69;98334.22;6143425;28;20291;-44
2023/05/18 03:35:40;;;;;;;7.97;3.93;;;;;;;7.02;86.96;98333.59;6130956;28;20327;-44
2023/05/18 03:38:46;;;;;;;12.50;4.47;;;;;;;7.03;86.97;98324.63;6141285;28;20754;-44
2023/05/18 03:41:50;;;;;;;7.70;3.70;;;;;;;6.95;86.78;98313.22;6141971;28;20233;-48
2023/05/18 03:44:52;;;;;;;10.40;4.77;;;;;;;7.07;84.88;98325.88;6145081;28;20245;-45
2023/05/18 03:47:55;;;;;;;7.30;3.80;;;;;;;7.11;84.60;98332.41;6143103;28;20243;-45
2023/05/18 03:51:00;;;;;;;6.10;3.33;;;;;;;7.01;85.37;98329.34;6124391;28;20236;-45
2023/05/18 03:54:05;;;;;;;7.70;3.87;;;;;;;6.96;86.19;98327.28;6125933;28;20241;-48
2023/05/18 03:57:07;;;;;;;11.00;3.97;;;;;;;6.98;84.83;98331.34;6150681;28;20291;-45
2023/05/18 04:00:12;;;;;;;8.23;3.93;;;;;;;6.98;86.08;98334.00;6132504;28;20237;-46
2023/05/18 04:03:20;;;;;;;8.33;4.00;;;;;;;6.93;85.71;98341.75;6140045;28;20218;-46
2023/05/18 04:06:25;;;;;;;13.63;4.13;;;;;;;6.87;86.18;98333.78;6145943;28;20267;-45
2023/05/18 04:09:28;;;;;;;10.50;3.77;;;;;;;6.95;86.65;98336.25;6144367;28;20262;-46
2023/05/18 04:12:30;;;;;;;6.40;3.77;;;;;;;6.95;85.25;98344.22;6147085;28;20709;-45
2023/05/18 04:15:32;;;;;;;14.40;4.70;;;;;;;6.95;86.34;98352.16;6149426;28;20785;-47
2023/05/18 04:18:35;;;;;;;9.23;3.67;;;;;;;6.97;85.94;98350.91;6146511;28;20244;-45
2023/05/18 04:21:38;;;;;;;9.23;4.13;;;;;;;6.94;85.34;98351.31;6147682;28;20977;-44
2023/05/18 04:24:42;;;;;;;11.73;4.00;;;;;;;6.96;85.38;98351.94;6145690;28;20251;-44
2023/05/18 04:27:44;;;;;;;11.07;4.80;;;;;;;7.00;85.22;98357.66;6147631;28;20232;-46
2023/05/18 04:30:46;;;;;;;7.43;3.80;;;;;;;7.00;86.80;98348.91;6145197;28;20288;-46
2023/05/18 04:33:50;;;;;;;9.00;4.43;;;;;;;6.97;87.21;98353.56;6146789;28;20694;-45
2023/05/18 04:36:57;;;;;;;8.43;3.80;;;;;;;6.96;86.41;98356.44;6147384;28;20241;-45
2023/05/18 04:40:06;;;;;;;10.07;4.00;;;;;;;6.98;85.27;98351.72;6149749;28;20245;-46
2023/05/18 04:43:09;;;;;;;8.57;3.67;;;;;;;7.01;85.57;98358.47;6147125;28;20260;-44
2023/05/18 04:46:15;;;;;;;7.67;3.23;;;;;;;7.02;84.81;98362.75;6145793;28;20725;-46
2023/05/18 04:49:22;;;;;;;7.27;3.37;;;;;;;7.06;85.84;98363.97;6130285;28;20237;-50
2023/05/18 04:52:25;;;;;;;10.77;3.70;;;;;;;7.16;83.48;98359.91;6145607;28;20248;-45
2023/05/18 04:55:27;;;;;;;8.93;3.40;;;;;;;7.13;84.56;98362.13;6127653;28;20311;-45
2023/05/18 04:58:40;;;;;;;14.63;4.30;;;;;;;7.14;84.75;98369.91;6135248;28;20274;-45
2023/05/18 05:01:43;;;;;;;12.50;3.60;;;;;;;7.02;84.97;98352.97;6149074;28;20246;-50
2023/05/18 05:04:46;;;;;;;9.13;3.43;;;;;;;7.09;84.79;98361.72;6146587;28;20249;-46
2023/05/18 05:07:52;;;;;;;10.23;3.50;;;;;;;7.10;85.03;98367.88;6141878;28;20307;-45
2023/05/18 05:10:56;;;;;;;11.53;3.17;;;;;;;7.10;86.49;98371.31;6147238;28;20261;-48
2023/05/18 05:13:58;;;;;;;9.40;3.63;;;;;;;7.11;84.17;98361.53;6145707;28;20239;-47
2023/05/18 05:17:01;;;;;;;10.20;3.83;;;;;;;7.13;84.28;98364.78;6142282;28;20721;-46
2023/05/18 05:20:04;;;;;;;13.10;3.87;;;;;;;7.16;83.85;98373.16;6129771;28;20245;-51
2023/05/18 05:23:06;;;;;;;9.77;3.47;;;;;;;7.21;83.75;98365.41;6122405;29;20237;-48
2023/05/18 05:26:11;;;;;;;8.47;3.87;;;;;;;7.21;83.47;98362.75;6106299;29;20234;-50
2023/05/18 05:29:14;;;;;;;9.63;3.40;;;;;;;7.19;85.70;98356.88;6122246;29;20321;-48
2023/05/18 05:32:17;;;;;;;9.00;3.90;;;;;;;7.20;83.72;98362.97;6109589;29;20603;-45
2023/05/18 05:35:20;;;;;;;8.53;3.67;;;;;;;7.31;83.17;98370.31;6122000;29;20224;-47
2023/05/18 05:38:22;;;;;;;9.30;3.00;;;;;;;7.34;83.42;98364.63;6121680;29;20325;-48
2023/05/18 05:41:25;;;;;;;8.57;3.17;;;;;;;7.32;83.14;98373.78;6119243;29;20239;-48
2023/05/18 05:44:27;;;;;;;9.43;3.63;;;;;;;7.33;83.40;98368.25;6122327;29;20235;-50
2023/05/18 05:47:30;;;;;;;10.33;3.40;;;;;;;7.45;80.43;98366.63;6120611;29;20240;-48
2023/05/18 05:50:33;;;;;;;7.77;3.60;;;;;;;7.44;81.64;98362.38;6106032;29;20317;-46
2023/05/18 05:53:37;;;;;;;10.07;3.47;;;;;;;7.41;83.46;98357.47;6118749;29;20234;-49
2023/05/18 05:56:40;;;;;;;6.87;3.00;;;;;;;7.41;81.55;98367.25;6105187;29;20326;-50
2023/05/18 05:59:43;;;;;;;12.00;2.97;;;;;;;7.50;80.84;98368.69;6103926;29;20256;-46
2023/05/18 06:02:46;;;;;;;8.03;3.40;;;;;;;7.52;80.96;98373.78;6118357;29;20253;-50
2023/05/18 06:05:51;;;;;;;12.83;3.77;;;;;;;7.72;79.54;98363.94;6122138;29;20239;-47
2023/05/18 06:08:55;;;;;;;8.93;3.13;;;;;;;7.61;81.28;98377.84;6115263;29;20596;-49
2023/05/18 06:11:58;;;;;;;8.23;3.30;;;;;;;7.62;82.36;98376.81;6121295;29;20713;-50
2023/05/18 06:15:02;;;;;;;6.97;3.20;;;;;;;7.72;81.04;98385.97;6120850;29;20239;-51
2023/05/18 06:18:04;;;;;;;6.27;3.33;;;;;;;7.70;79.61;98377.44;6127766;28;20560;-47
2023/05/18 06:21:07;;;;;;;9.77;3.10;;;;;;;7.69;79.91;98378.47;6143195;28;20376;-47
2023/05/18 06:24:10;;;;;;;11.37;4.03;;;;;;;7.70;79.77;98376.63;6153097;28;20577;-50
2023/05/18 06:27:35;;;;;;;11.67;2.93;;;;;;;7.82;79.49;98388.22;6128966;28;20238;-51
2023/05/18 06:31:17;;;;;;;5.40;2.90;;;;;;;7.72;79.68;98382.53;6131050;28;20243;-50
2023/05/18 06:34:23;;;;;;;7.43;2.93;;;;;;;7.72;81.09;98390.47;6144290;28;20250;-49
2023/05/18 06:37:26;;;;;;;6.90;3.03;;;;;;;7.71;79.60;98400.28;6129493;28;20238;-51
2023/05/18 06:40:28;;;;;;;5.93;2.93;;;;;;;7.70;80.51;98396.00;6124736;28;20721;-50
2023/05/18 06:43:30;;;;;;;4.47;2.57;;;;;;;7.67;81.03;98393.75;6143735;28;20265;-49
2023/05/18 06:46:55;;;;;;;11.77;2.97;;;;;;;7.89;78.12;98397.00;6144608;28;20251;-50
2023/05/18 06:50:01;;;;;;;11.70;3.90;;;;;;;7.97;77.32;98393.28;6148770;28;20245;-50
2023/05/18 06:53:03;;;;;;;9.17;3.53;;;;;;;7.82;79.28;98398.81;6144162;28;20816;-49
2023/05/18 06:56:07;;;;;;;13.37;3.87;;;;;;;7.76;80.36;98402.31;6142123;28;20904;-50
2023/05/18 06:59:10;;;;;;;9.83;3.63;;;;;;;7.69;81.82;98404.97;6125777;28;20242;-50
2023/05/18 07:02:13;;;;;;;9.50;3.40;;;;;;;7.73;80.29;98405.34;6143782;28;20327;-50
2023/05/18 07:05:16;;;;;;;11.37;3.47;;;;;;;7.78;81.21;98404.75;6127656;28;20744;-50
2023/05/18 07:08:18;;;;;;;9.43;3.37;;;;;;;7.75;81.43;98408.63;6141853;28;20331;-51
2023/05/18 07:11:21;;;;;;;14.60;4.00;;;;;;;7.69;81.23;98417.41;6142832;28;20254;-46
2023/05/18 07:14:24;;;;;;;13.83;4.00;;;;;;;7.70;81.17;98429.66;6145303;28;20372;-45
2023/05/18 07:17:26;;;;;;;10.40;3.57;;;;;;;7.62;82.06;98425.34;6142628;28;20464;-45
2023/05/18 07:20:29;;;;;;;7.37;3.43;;;;;;;7.71;82.00;98433.94;6123670;28;20714;-45
2023/05/18 07:23:32;;;;;;;10.50;4.03;;;;;;;7.71;81.71;98431.28;6120565;29;20244;-47
2023/05/18 07:26:34;;;;;;;7.67;3.90;;;;;;;7.70;81.60;98433.13;6121418;29;20235;-46
2023/05/18 07:29:36;;;;;;;16.07;3.70;;;;;;;7.59;83.00;98430.28;6119824;29;20255;-47
2023/05/18 07:32:39;;;;;;;8.53;3.73;;;;;;;7.58;82.37;98437.38;6119821;28;20328;-44
2023/05/18 07:35:41;;;;;;;7.93;3.80;;;;;;;7.60;82.56;98438.03;6118206;29;20445;-45
2023/05/18 07:38:43;;;;;;;10.70;3.77;;;;;;;7.58;83.25;98431.28;6120973;29;20327;-44
2023/05/18 07:41:47;;;;;;;11.90;4.13;;;;;;;7.55;83.87;98437.00;6120263;29;20240;-45
2023/05/18 07:44:49;;;;;;;12.80;3.97;;;;;;;7.55;83.78;98429.03;6119420;29;20274;-46
2023/05/18 07:47:53;;;;;;;10.57;3.60;;;;;;;7.58;84.73;98429.44;6117298;29;20248;-48
2023/05/18 07:50:55;;;;;;;12.17;3.87;;;;;;;7.60;84.29;98426.59;6121729;29;20272;-46
2023/05/18 07:53:57;;;;;;;10.13;3.40;;;;;;;7.61;83.83;98430.88;6119130;29;20253;-46
2023/05/18 07:57:00;;;;;;;9.90;4.43;;;;;;;7.55;84.33;98429.03;6122052;29;20796;-48
2023/05/18 08:00:05;;;;;;;10.33;3.97;;;;;;;7.54;85.57;98432.69;6119878;29;20297;-47
2023/05/18 08:03:13;;;;;;;8.73;4.23;;;;;;;7.45;85.10;98422.31;6118520;29;20229;-46
2023/05/18 08:06:15;;;;;;;11.37;4.00;;;;;;;7.47;86.33;98427.41;6118068;29;20218;-48
2023/05/18 08:09:17;;;;;;;8.67;4.60;;;;;;;7.42;86.34;98438.59;6116766;29;20224;-45
2023/05/18 08:12:20;;;;;;;10.40;4.10;;;;;;;7.45;87.06;98438.22;6121575;29;20720;-44
2023/05/18 08:15:22;;;;;;;6.90;3.50;;;;;;;7.44;85.84;98433.13;6121118;29;20249;-47
2023/05/18 08:18:25;;;;;;;10.13;4.50;;;;;;;7.42;86.04;98435.97;6122256;28;20257;-45
2023/05/18 08:21:27;;;;;;;9.13;3.77;;;;;;;7.42;86.65;98448.41;6144668;28;20320;-45
2023/05/18 08:24:29;;;;;;;10.53;4.33;;;;;;;7.45;86.13;98437.41;6142195;28;20232;-46
2023/05/18 08:27:31;;;;;;;11.90;4.77;;;;;;;7.42;86.00;98435.16;6144111;28;20310;-46
2023/05/18 08:30:33;;;;;;;8.67;4.10;;;;;;;7.40;86.75;98438.00;6143721;28;20232;-44
2023/05/18 08:33:36;;;;;;;8.93;4.20;;;;;;;7.44;87.18;98441.88;6143466;28;20228;-46
2023/05/18 08:36:39;;;;;;;15.77;4.43;;;;;;;7.50;86.57;98449.03;6141245;28;20236;-46
2023/05/18 08:39:44;;;;;;;10.67;4.67;;;;;;;7.52;85.56;98450.66;6144262;28;20237;-45
2023/05/18 08:42:57;;;;;;;9.67;4.50;;;;;;;7.52;86.03;98450.66;6142324;28;20239;-47
2023/05/18 08:46:24;;;;;;;9.83;4.03;;;;;;;7.54;85.14;98453.91;6152638;28;20236;-46
2023/05/18 08:49:27;;;;;;;8.27;3.80;;;;;;;7.44;85.33;98441.09;6149012;28;20292;-47
2023/05/18 08:52:35;;;;;;;8.83;4.40;;;;;;;7.61;83.93;98454.75;6146600;28;20284;-47
2023/05/18 08:55:39;;;;;;;6.93;4.10;;;;;;;7.46;84.37;98445.16;6147348;28;20237;-49
2023/05/18 08:58:47;;;;;;;12.73;4.30;;;;;;;7.56;84.15;98451.88;6147074;28;20232;-47
2023/05/18 09:01:51;;;;;;;9.30;3.80;;;;;;;7.56;83.93;98452.69;6149258;28;20315;-45
2023/05/18 09:04:55;;;;;;;8.07;4.27;;;;;;;7.59;84.04;98441.69;6145775;28;20241;-46
2023/05/18 09:07:58;;;;;;;11.37;4.17;;;;;;;7.67;83.08;98448.63;6144190;28;20264;-46
2023/05/18 09:11:02;;;;;;;11.70;3.80;;;;;;;7.65;82.30;98446.19;6146186;28;20389;-51
2023/05/18 09:14:04;;;;;;;9.73;3.97;;;;;;;7.65;82.84;98448.81;6142697;28;20240;-51
2023/05/18 09:17:07;;;;;;;12.00;3.70;;;;;;;7.70;82.62;98456.19;6147918;28;20237;-45
2023/05/18 09:20:11;;;;;;;10.93;3.77;;;;;;;7.71;83.89;98452.50;6149574;28;20234;-46
2023/05/18 09:23:16;;;;;;;7.93;3.73;;;;;;;7.81;81.86;98434.34;6147017;28;20292;-46
2023/05/18 09:26:20;;;;;;;9.37;3.77;;;;;;;7.70;82.64;98448.22;6138511;28;20230;-46
2023/05/18 09:29:25;;;;;;;11.00;4.27;;;;;;;7.72;83.94;98446.16;6144347;28;20227;-46
2023/05/18 09:32:33;;;;;;;7.10;4.03;;;;;;;7.70;82.99;98449.03;6143394;28;20241;-49
2023/05/18 09:35:36;;;;;;;7.47;3.63;;;;;;;7.65;83.55;98456.78;6142815;28;20234;-50
2023/05/18 09:38:44;;;;;;;11.53;4.90;;;;;;;7.89;82.43;98452.69;6145422;28;20948;-46
2023/05/18 09:41:56;;;;;;;10.10;3.83;;;;;;;7.88;81.81;98458.19;6142308;28;20239;-45
2023/05/18 09:45:00;;;;;;;10.53;4.37;;;;;;;7.73;82.84;98453.94;6144211;28;20250;-51
2023/05/18 09:48:06;;;;;;;8.97;4.47;;;;;;;7.68;83.91;98440.44;6143965;28;20305;-46
2023/05/18 09:51:15;;;;;;;11.60;4.30;;;;;;;7.78;83.34;98450.66;6146955;28;20213;-50
2023/05/18 09:54:17;;;;;;;10.70;4.83;;;;;;;7.84;82.59;98455.16;6127015;28;20312;-46
2023/05/18 09:57:21;;;;;;;12.37;4.70;;;;;;;7.97;81.14;98449.81;6146650;28;20234;-46
2023/05/18 10:00:25;;;;;;;12.93;5.10;;;;;;;7.95;81.79;98456.38;6144038;28;20377;-51
2023/05/18 10:03:37;;;;;;;8.90;4.10;;;;;;;7.99;80.98;98452.28;6146945;28;20241;-51
2023/05/18 10:06:48;;;;;;;6.83;3.97;;;;;;;7.98;81.87;98458.63;6144435;28;20595;-49
2023/05/18 10:10:02;;;;;;;13.63;4.27;;;;;;;7.88;81.89;98451.06;6144373;28;20330;-46
2023/05/18 10:13:04;;;;;;;10.83;3.90;;;;;;;7.93;82.40;98447.78;6143819;28;20297;-47
2023/05/18 10:16:07;;;;;;;13.87;4.73;;;;;;;7.91;82.36;98455.13;6146078;28;20289;-49
2023/05/18 10:19:11;;;;;;;11.27;4.07;;;;;;;7.94;81.95;98460.84;6145727;28;20269;-48
2023/05/18 10:22:18;;;;;;;15.20;5.20;;;;;;;8.02;81.65;98451.84;6128311;28;20236;-50
2023/05/18 10:25:26;;;;;;;9.47;4.03;;;;;;;7.95;81.90;98446.56;6146051;28;20236;-50
2023/05/18 10:28:37;;;;;;;10.17;3.93;;;;;;;7.96;82.69;98442.88;6146338;28;20230;-45
2023/05/18 10:31:41;;;;;;;13.43;4.47;;;;;;;8.00;81.77;98448.59;6146894;28;20234;-50
2023/05/18 10:34:44;;;;;;;11.07;4.23;;;;;;;8.06;81.82;98445.13;6145936;28;20237;-51
2023/05/18 10:37:52;;;;;;;8.67;3.87;;;;;;;8.17;79.80;98456.94;6142591;28;20226;-49
2023/05/18 10:40:57;;;;;;;14.93;3.83;;;;;;;8.18;80.06;98443.47;6144554;28;20249;-49
2023/05/18 10:44:02;;;;;;;9.50;4.33;;;;;;;8.17;80.22;98439.16;6143801;28;20237;-46
2023/05/18 10:47:07;;;;;;;10.73;4.53;;;;;;;8.27;78.57;98444.03;6146573;28;20698;-47
2023/05/18 10:50:09;;;;;;;11.10;4.27;;;;;;;8.37;78.53;98447.13;6147747;28;20230;-51
2023/05/18 10:53:11;;;;;;;10.57;4.17;;;;;;;8.28;79.77;98443.06;6145348;28;20394;-49
2023/05/18 10:56:17;;;;;;;8.30;3.80;;;;;;;8.31;79.44;98439.97;6145220;28;20237;-51
2023/05/18 10:59:23;;;;;;;11.30;4.10;;;;;;;8.52;77.11;98437.09;6146209;28;20256;-48
2023/05/18 11:02:26;;;;;;;12.60;4.37;;;;;;;8.44;76.78;98421.38;6142736;28;20237;-51
2023/05/18 11:05:29;;;;;;;9.07;4.10;;;;;;;8.46;76.96;98437.91;6143612;28;20233;-50
2023/05/18 11:08:32;;;;;;;8.50;3.43;;;;;;;8.49;77.11;98442.00;6143158;28;20600;-50
2023/05/18 11:11:56;;;;;;;8.53;3.53;;;;;;;8.38;78.65;98440.00;6143282;28;20242;-50
2023/05/18 11:14:59;;;;;;;10.80;3.70;;;;;;;8.44;77.98;98433.84;6145487;28;20238;-50
2023/05/18 11:18:14;;;;;;;11.17;3.67;;;;;;;8.46;76.69;98437.91;6141285;28;20349;-51
2023/05/18 11:21:22;;;;;;;11.20;3.50;;;;;;;8.57;76.42;98439.13;6128534;29;20254;-49
2023/05/18 11:24:32;;;;;;;10.40;3.70;;;;;;;8.62;76.54;98435.81;6128353;29;20309;-51
2023/05/18 11:27:34;;;;;;;12.30;3.90;;;;;;;8.68;75.83;98445.59;6129111;29;20238;-51
2023/05/18 11:30:36;;;;;;;14.30;3.70;;;;;;;8.61;76.82;98440.31;6103206;29;20222;-52
2023/05/18 11:33:41;;;;;;;13.10;4.00;;;;;;;8.66;75.24;98443.13;6131148;29;20238;-49
2023/05/18 11:36:44;;;;;;;14.73;4.37;;;;;;;8.64;75.65;98445.19;6131087;29;20324;-48
2023/05/18 11:39:54;;;;;;;11.80;4.27;;;;;;;8.57;75.97;98446.25;6130125;29;20233;-45
2023/05/18 11:43:02;;;;;;;9.73;3.63;;;;;;;8.62;76.60;98447.25;6129974;29;20239;-47
2023/05/18 11:46:17;;;;;;;8.53;3.90;;;;;;;8.71;74.95;98445.97;6114091;29;20244;-47
2023/05/18 11:49:25;;;;;;;13.67;3.83;;;;;;;8.78;75.09;98448.63;6128558;29;20308;-46
2023/05/18 11:52:28;;;;;;;10.00;3.70;;;;;;;8.76;74.54;98440.84;6130515;29;20234;-48
2023/05/18 11:55:40;;;;;;;8.73;3.73;;;;;;;8.88;74.41;98454.31;6130935;29;20333;-45
2023/05/18 11:58:42;;;;;;;9.50;3.97;;;;;;;8.79;75.10;98453.72;6128033;29;20234;-49
2023/05/18 12:01:44;;;;;;;11.40;3.90;;;;;;;8.80;75.75;98446.56;6130571;29;20245;-47
2023/05/18 12:04:52;;;;;;;8.47;3.47;;;;;;;9.03;74.33;98446.06;6130953;29;20735;-46
2023/05/18 12:07:55;;;;;;;7.40;3.47;;;;;;;9.00;74.07;98459.75;6128944;28;20239;-46
2023/05/18 12:10:58;;;;;;;7.83;3.73;;;;;;;8.95;74.01;98452.41;6130592;29;20239;-47
2023/05/18 12:14:00;;;;;;;12.43;4.10;;;;;;;9.00;74.52;98449.13;6130507;29;20239;-46
2023/05/18 12:17:03;;;;;;;10.40;4.20;;;;;;;9.11;73.70;98456.41;6132000;28;20312;-48
2023/05/18 12:20:20;;;;;;;7.60;3.30;;;;;;;8.97;74.34;98457.53;6127736;29;20247;-46
2023/05/18 12:23:35;;;;;;;10.43;4.23;;;;;;;9.11;74.27;98455.59;6123993;29;20326;-50
2023/05/18 12:26:39;;;;;;;11.10;3.87;;;;;;;9.05;74.79;98463.41;6121618;29;20243;-47
2023/05/18 12:29:42;;;;;;;8.07;3.70;;;;;;;9.13;73.65;98462.34;6123891;29;20735;-46
2023/05/18 12:32:48;;;;;;;9.97;3.63;;;;;;;9.09;74.33;98457.66;6124611;29;20242;-47
2023/05/18 12:35:53;;;;;;;7.70;3.63;;;;;;;9.12;74.28;98455.41;6122203;29;20236;-50
2023/05/18 12:38:56;;;;;;;9.17;3.40;;;;;;;9.03;75.03;98449.53;6125132;29;20600;-51
2023/05/18 12:42:14;;;;;;;10.73;4.33;;;;;;;9.20;74.23;98454.31;6123459;29;20247;-46
2023/05/18 12:45:16;;;;;;;10.57;4.00;;;;;;;9.14;75.50;98456.00;6124890;29;20610;-46
2023/05/18 12:48:21;;;;;;;9.43;4.37;;;;;;;9.21;74.61;98453.28;6121915;29;20250;-47
2023/05/18 12:51:29;;;;;;;8.10;3.77;;;;;;;9.15;75.00;98451.50;6125209;29;20238;-47
2023/05/18 12:54:31;;;;;;;9.83;3.50;;;;;;;9.29;73.74;98459.19;6105763;29;20235;-47
2023/05/18 12:57:40;;;;;;;10.53;3.87;;;;;;;9.21;74.65;98456.78;6122019;29;20227;-45
2023/05/18 13:00:45;;;;;;;8.80;3.80;;;;;;;9.38;73.54;98451.75;6124080;29;20269;-46
2023/05/18 13:03:55;;;;;;;11.90;4.23;;;;;;;9.24;74.90;98452.88;6120654;29;20239;-47
2023/05/18 13:06:57;;;;;;;10.13;4.00;;;;;;;9.24;74.37;98452.88;6124535;29;20250;-47
2023/05/18 13:10:11;;;;;;;8.00;3.77;;;;;;;9.22;75.13;98452.28;6121626;29;20245;-46
2023/05/18 13:13:15;;;;;;;11.17;4.00;;;;;;;9.21;76.08;98445.31;6125401;29;20271;-47
2023/05/18 13:16:17;;;;;;;11.47;4.10;;;;;;;9.27;76.47;98444.47;6122728;29;20245;-46
2023/05/18 13:19:19;;;;;;;7.93;3.30;;;;;;;9.26;76.19;98445.50;6123688;28;20247;-46
2023/05/18 13:22:22;;;;;;;10.30;4.20;;;;;;;9.37;75.20;98449.31;6122730;29;20250;-46
2023/05/18 13:25:25;;;;;;;8.40;4.30;;;;;;;9.34;75.90;98455.06;6121430;29;20263;-47
2023/05/18 13:28:27;;;;;;;8.87;4.00;;;;;;;9.44;75.92;98450.91;6121938;29;20359;-51
2023/05/18 13:31:30;;;;;;;10.00;3.83;;;;;;;9.70;72.82;98452.53;6120128;29;20309;-46
2023/05/18 13:34:32;;;;;;;10.20;4.03;;;;;;;9.66;72.84;98443.38;6124850;29;20234;-46
2023/05/18 13:37:34;;;;;;;9.37;3.87;;;;;;;9.51;75.40;98453.53;6122017;29;20293;-46
2023/05/18 13:40:37;;;;;;;8.20;3.80;;;;;;;9.48;74.59;98449.44;6123907;29;20295;-46
2023/05/18 13:43:39;;;;;;;13.30;3.57;;;;;;;9.59;73.86;98453.25;6121420;29;20838;-46
2023/05/18 13:46:42;;;;;;;14.10;4.40;;;;;;;9.55;76.02;98457.38;6123975;29;20293;-50
2023/05/18 13:49:45;;;;;;;7.70;3.37;;;;;;;9.50;74.38;98447.38;6125065;29;20278;-47
2023/05/18 13:52:47;;;;;;;9.43;3.60;;;;;;;9.50;74.97;98452.69;6121335;29;20235;-45
2023/05/18 13:55:50;;;;;;;7.57;3.47;;;;;;;9.53;76.20;98446.13;6121773;29;20231;-46
2023/05/18 13:58:52;;;;;;;6.53;3.57;;;;;;;9.69;73.70;98452.75;6123550;29;20741;-47
2023/05/18 14:01:55;;;;;;;10.13;3.90;;;;;;;9.68;73.40;98443.16;6122611;29;20802;-46
2023/05/18 14:04:57;;;;;;;7.03;3.40;;;;;;;9.68;73.29;98443.16;6120963;29;20240;-49
2023/05/18 14:08:00;;;;;;;10.27;3.30;;;;;;;9.56;75.09;98443.88;6119607;29;20330;-51
2023/05/18 14:11:02;;;;;;;8.17;3.57;;;;;;;9.52;76.44;98441.84;6120878;29;20745;-47
2023/05/18 14:14:07;;;;;;;8.63;3.70;;;;;;;9.64;73.39;98441.97;6121098;29;20336;-47
2023/05/18 14:17:11;;;;;;;14.33;3.87;;;;;;;9.67;73.91;98431.72;6122056;29;20860;-46
2023/05/18 14:20:14;;;;;;;8.43;3.83;;;;;;;9.69;73.63;98439.47;6121241;29;20245;-52
2023/05/18 14:23:16;;;;;;;9.20;3.57;;;;;;;9.79;73.23;98437.13;6120789;29;20234;-51
2023/05/18 14:26:18;;;;;;;6.87;3.37;;;;;;;9.69;75.18;98434.13;6119966;29;20245;-50
2023/05/18 14:29:20;;;;;;;7.97;3.30;;;;;;;9.71;75.38;98434.75;6120464;29;20238;-47
2023/05/18 14:32:23;;;;;;;9.10;3.90;;;;;;;9.71;74.83;98434.75;6120657;29;20231;-47
2023/05/18 14:35:25;;;;;;;9.47;3.73;;;;;;;9.75;74.58;98430.59;6121013;29;20245;-51
2023/05/18 14:38:27;;;;;;;9.40;3.80;;;;;;;9.75;75.88;98442.09;6119687;29;20616;-49